Raleigh, NC (27603)

10:19 PM EST on February 08, 2016 (GMT -0500)
Renaissance Park | | Change Station
CLOSE
Current Station
Personal Weather Station
Location: Raleigh, NC
Elevation: 361 ft
Nearby Weather Stations

Elev 361 ft 35.74 °N, 78.66 °W | Updated 3 minutes ago

Overcast
Overcast
38.6 °F
Feels Like 39 °F
N
0.0
Wind Variable Wind from SW
Gusts 0.0 mph

Today
High -- | Low -- °F
--% Chance of Precip.
Yesterday
High -- | Low -- °F
Precip. -- in
Pressure 29.68 in
Visibility 8.0 miles
Clouds Few 600 ft
Mostly Cloudy 11000 ft
Overcast 18000 ft
Windchill 39 °F
Dew Point 37 °F
Humidity 95%
Rainfall 0.13 in
Snow Depth Not available.
7:09 AM 5:48 PM
New Moon, 0% visible
METAR KRDU 090251Z 00000KT 8SM FEW006 BKN110 OVC180 03/03 A2967 RMK AO2 SLP049 60000 T00330028 56003 $
Pressure 29.68 in
Visibility 8.0 miles
Clouds Few 600 ft
Mostly Cloudy 11000 ft
Overcast 18000 ft
Windchill 39 °F
Dew Point 37 °F
Humidity 95%
Rainfall 0.13 in
Snow Depth Not available.
7:09 AM 5:48 PM
New Moon, 0% visible
METAR KRDU 090251Z 00000KT 8SM FEW006 BKN110 OVC180 03/03 A2967 RMK AO2 SLP049 60000 T00330028 56003 $

10-Day Weather Forecast

Almanac

Astronomy

Feb. 08, 2016 Rise Set
Actual Time
Civil Twilight
Nautical Twilight
Astronomical Twilight
Moon
Length of Visible Light
Length of Day
Tomorrow will be .
, % of the Moon is Illuminated

Today's Extremes

State Highs State Lows

Community

WunderPhotos

Upload Photos

1,891,527 photos uploaded!

WunderBlog® & News

Nearby

Air Quality

  Air Quality AQ Index Pollutant
Not available.

Snow Depth

Station Depth Elevation

Earthquake Activity

City Distance Mag. Time & Date
Minimum magnitude displayed is 2.5.

Coastal Water Temperatures

Place Temperature

Stations

Nearby Weather Stations

Station Location Temp. Windchill Dew Point Humidity Wind Precip. Elev Updated Type
                   

Watches & Warnings

There are currently no watches in effect.